sensor_id;sensor_type;location;lat;lon;timestamp;pressure;altitude;pressure_sealevel;temperature;humidity
62164;BME280;48149;51.132;7.178;2023-02-18T00:00:34;99353.25;;;19.40;77.15
62164;BME280;48149;51.132;7.178;2023-02-18T00:02:59;99338.63;;;20.11;74.28
62164;BME280;48149;51.132;7.178;2023-02-18T00:05:25;99340.28;;;20.17;74.49
62164;BME280;48149;51.132;7.178;2023-02-18T00:07:50;99344.41;;;19.98;76.38
62164;BME280;48149;51.132;7.178;2023-02-18T00:10:16;99331.78;;;20.82;71.33
62164;BME280;48149;51.132;7.178;2023-02-18T00:12:41;99340.91;;;19.02;77.80
62164;BME280;48149;51.132;7.178;2023-02-18T00:15:06;99350.41;;;18.71;81.84
62164;BME280;48149;51.132;7.178;2023-02-18T00:17:32;99344.56;;;19.81;72.65
62164;BME280;48149;51.132;7.178;2023-02-18T00:19:57;99350.63;;;19.45;76.40
62164;BME280;48149;51.132;7.178;2023-02-18T00:22:23;99342.28;;;19.95;78.04
62164;BME280;48149;51.132;7.178;2023-02-18T00:24:48;99345.69;;;19.95;76.75
62164;BME280;48149;51.132;7.178;2023-02-18T00:27:14;99341.09;;;20.22;71.45
62164;BME280;48149;51.132;7.178;2023-02-18T00:29:39;99331.97;;;20.55;70.98
62164;BME280;48149;51.132;7.178;2023-02-18T00:32:04;99329.09;;;20.67;69.44
62164;BME280;48149;51.132;7.178;2023-02-18T00:34:30;99324.91;;;21.06;67.56
62164;BME280;48149;51.132;7.178;2023-02-18T00:36:55;99320.72;;;21.25;63.80
62164;BME280;48149;51.132;7.178;2023-02-18T00:39:20;99306.19;;;20.61;70.10
62164;BME280;48149;51.132;7.178;2023-02-18T00:41:45;99303.00;;;20.12;75.38
62164;BME280;48149;51.132;7.178;2023-02-18T00:44:11;99307.13;;;21.12;69.05
62164;BME280;48149;51.132;7.178;2023-02-18T00:46:37;99295.09;;;20.17;75.08
62164;BME280;48149;51.132;7.178;2023-02-18T00:49:02;99292.91;;;20.61;71.36
62164;BME280;48149;51.132;7.178;2023-02-18T00:51:28;99297.75;;;20.99;70.83
62164;BME280;48149;51.132;7.178;2023-02-18T00:53:53;99305.94;;;20.10;76.12
62164;BME280;48149;51.132;7.178;2023-02-18T00:56:19;99304.94;;;19.80;78.71
62164;BME280;48149;51.132;7.178;2023-02-18T00:58:44;99294.75;;;20.03;75.79
62164;BME280;48149;51.132;7.178;2023-02-18T01:01:09;99294.91;;;19.50;82.00
62164;BME280;48149;51.132;7.178;2023-02-18T01:03:36;99293.47;;;20.73;68.76
62164;BME280;48149;51.132;7.178;2023-02-18T01:06:01;99292.94;;;19.08;80.25
62164;BME280;48149;51.132;7.178;2023-02-18T01:08:27;99292.00;;;20.40;78.13
62164;BME280;48149;51.132;7.178;2023-02-18T01:10:53;99298.06;;;19.84;80.71
62164;BME280;48149;51.132;7.178;2023-02-18T01:13:18;99283.53;;;19.96;76.55
62164;BME280;48149;51.132;7.178;2023-02-18T01:15:44;99283.97;;;19.83;76.25
62164;BME280;48149;51.132;7.178;2023-02-18T01:18:10;99289.28;;;19.83;76.46
62164;BME280;48149;51.132;7.178;2023-02-18T01:20:36;99288.53;;;19.51;80.36
62164;BME280;48149;51.132;7.178;2023-02-18T01:23:02;99277.75;;;20.66;69.16
62164;BME280;48149;51.132;7.178;2023-02-18T01:25:28;99285.94;;;19.56;73.70
62164;BME280;48149;51.132;7.178;2023-02-18T01:27:53;99276.00;;;19.14;81.09
62164;BME280;48149;51.132;7.178;2023-02-18T01:30:18;99278.41;;;19.43;82.58
62164;BME280;48149;51.132;7.178;2023-02-18T01:32:44;99275.69;;;19.75;75.31
62164;BME280;48149;51.132;7.178;2023-02-18T01:35:10;99273.72;;;20.59;73.18
62164;BME280;48149;51.132;7.178;2023-02-18T01:37:37;99267.94;;;19.68;76.64
62164;BME280;48149;51.132;7.178;2023-02-18T01:40:03;99273.25;;;20.82;69.85
62164;BME280;48149;51.132;7.178;2023-02-18T01:42:28;99267.00;;;19.89;73.74
62164;BME280;48149;51.132;7.178;2023-02-18T01:45:39;99260.91;;;20.36;75.59
62164;BME280;48149;51.132;7.178;2023-02-18T01:47:39;99263.22;;;19.75;76.26
62164;BME280;48149;51.132;7.178;2023-02-18T01:50:04;99273.50;;;20.81;70.14
62164;BME280;48149;51.132;7.178;2023-02-18T01:52:29;99287.66;;;21.72;64.00
62164;BME280;48149;51.132;7.178;2023-02-18T01:54:57;99261.47;;;20.53;69.03
62164;BME280;48149;51.132;7.178;2023-02-18T01:57:23;99261.81;;;20.09;71.76
62164;BME280;48149;51.132;7.178;2023-02-18T02:02:16;99251.63;;;19.96;74.87
62164;BME280;48149;51.132;7.178;2023-02-18T02:04:42;99241.78;;;19.13;78.48
62164;BME280;48149;51.132;7.178;2023-02-18T02:07:07;99241.88;;;21.04;69.07
62164;BME280;48149;51.132;7.178;2023-02-18T02:09:33;99254.94;;;20.13;74.52
62164;BME280;48149;51.132;7.178;2023-02-18T02:19:37;99238.78;;;19.78;73.84
62164;BME280;48149;51.132;7.178;2023-02-18T02:22:21;99232.75;;;20.65;68.43
62164;BME280;48149;51.132;7.178;2023-02-18T02:24:57;99231.44;;;20.62;69.68
62164;BME280;48149;51.132;7.178;2023-02-18T02:27:32;99222.72;;;21.12;67.73
62164;BME280;48149;51.132;7.178;2023-02-18T02:35:12;99222.00;;;20.24;70.78
62164;BME280;48149;51.132;7.178;2023-02-18T02:37:52;99221.41;;;21.20;68.66
62164;BME280;48149;51.132;7.178;2023-02-18T02:52:58;99212.09;;;19.53;80.72
62164;BME280;48149;51.132;7.178;2023-02-18T02:55:24;99197.41;;;19.45;81.85
62164;BME280;48149;51.132;7.178;2023-02-18T02:57:51;99195.88;;;20.11;76.95
62164;BME280;48149;51.132;7.178;2023-02-18T03:00:17;99199.06;;;19.19;81.54
62164;BME280;48149;51.132;7.178;2023-02-18T03:02:56;99192.69;;;19.52;77.13
62164;BME280;48149;51.132;7.178;2023-02-18T03:05:48;99195.88;;;19.54;80.68
62164;BME280;48149;51.132;7.178;2023-02-18T03:15:54;99195.75;;;20.58;77.55
62164;BME280;48149;51.132;7.178;2023-02-18T03:21:03;99188.63;;;19.08;83.13
62164;BME280;48149;51.132;7.178;2023-02-18T03:23:31;99181.09;;;19.68;83.97
62164;BME280;48149;51.132;7.178;2023-02-18T03:25:59;99174.66;;;19.23;82.38
62164;BME280;48149;51.132;7.178;2023-02-18T03:28:25;99178.56;;;19.10;84.78
62164;BME280;48149;51.132;7.178;2023-02-18T03:30:54;99176.19;;;19.08;89.96
62164;BME280;48149;51.132;7.178;2023-02-18T03:33:24;99176.13;;;19.82;83.07
62164;BME280;48149;51.132;7.178;2023-02-18T03:35:50;99169.97;;;20.54;76.47
62164;BME280;48149;51.132;7.178;2023-02-18T03:38:20;99169.16;;;20.53;74.45
62164;BME280;48149;51.132;7.178;2023-02-18T03:40:48;99173.94;;;19.74;81.90
62164;BME280;48149;51.132;7.178;2023-02-18T03:43:14;99179.03;;;20.58;78.43
62164;BME280;48149;51.132;7.178;2023-02-18T03:45:39;99160.44;;;19.86;75.74
62164;BME280;48149;51.132;7.178;2023-02-18T03:48:04;99156.91;;;20.52;75.23
62164;BME280;48149;51.132;7.178;2023-02-18T03:50:30;99159.19;;;20.03;78.54
62164;BME280;48149;51.132;7.178;2023-02-18T03:52:55;99148.41;;;20.40;77.57
62164;BME280;48149;51.132;7.178;2023-02-18T03:55:20;99142.53;;;18.82;89.72
62164;BME280;48149;51.132;7.178;2023-02-18T03:57:46;99138.66;;;18.95;86.27
62164;BME280;48149;51.132;7.178;2023-02-18T04:00:11;99147.44;;;19.84;81.67
62164;BME280;48149;51.132;7.178;2023-02-18T04:02:36;99142.00;;;20.26;78.03
62164;BME280;48149;51.132;7.178;2023-02-18T04:05:02;99133.66;;;19.97;83.32
62164;BME280;48149;51.132;7.178;2023-02-18T04:07:27;99136.75;;;19.74;80.20
62164;BME280;48149;51.132;7.178;2023-02-18T04:09:52;99133.00;;;20.52;77.81
62164;BME280;48149;51.132;7.178;2023-02-18T04:12:17;99119.41;;;20.34;78.97
62164;BME280;48149;51.132;7.178;2023-02-18T04:14:43;99115.63;;;19.00;83.01
62164;BME280;48149;51.132;7.178;2023-02-18T04:17:08;99110.31;;;25.22;54.78
62164;BME280;48149;51.132;7.178;2023-02-18T04:19:34;99122.94;;;23.29;54.55
62164;BME280;48149;51.132;7.178;2023-02-18T04:21:59;99107.41;;;22.79;57.48
62164;BME280;48149;51.132;7.178;2023-02-18T04:24:25;99121.72;;;23.46;57.20
62164;BME280;48149;51.132;7.178;2023-02-18T04:26:50;99101.38;;;23.50;57.67
62164;BME280;48149;51.132;7.178;2023-02-18T04:29:15;99100.44;;;24.58;53.55
62164;BME280;48149;51.132;7.178;2023-02-18T04:31:40;99101.91;;;24.13;55.63
62164;BME280;48149;51.132;7.178;2023-02-18T04:34:06;99087.34;;;24.00;53.41
62164;BME280;48149;51.132;7.178;2023-02-18T04:36:32;99090.47;;;24.07;52.03
62164;BME280;48149;51.132;7.178;2023-02-18T04:38:57;99096.84;;;24.62;55.23
62164;BME280;48149;51.132;7.178;2023-02-18T04:41:23;99099.13;;;24.36;52.28
62164;BME280;48149;51.132;7.178;2023-02-18T04:43:48;99093.63;;;25.25;51.09
62164;BME280;48149;51.132;7.178;2023-02-18T04:46:13;99093.44;;;25.48;48.82
62164;BME280;48149;51.132;7.178;2023-02-18T04:48:38;99092.91;;;24.92;49.58
62164;BME280;48149;51.132;7.178;2023-02-18T04:51:04;99080.78;;;24.11;52.99
62164;BME280;48149;51.132;7.178;2023-02-18T04:53:29;99084.22;;;22.02;58.32
62164;BME280;48149;51.132;7.178;2023-02-18T04:55:54;99075.00;;;24.41;54.40
62164;BME280;48149;51.132;7.178;2023-02-18T04:58:20;99082.44;;;23.70;56.41
62164;BME280;48149;51.132;7.178;2023-02-18T05:00:45;99073.81;;;24.48;52.67
62164;BME280;48149;51.132;7.178;2023-02-18T05:03:11;99076.69;;;24.19;52.80
62164;BME280;48149;51.132;7.178;2023-02-18T05:05:36;99078.66;;;23.71;55.70
62164;BME280;48149;51.132;7.178;2023-02-18T05:08:02;99063.38;;;23.29;86.86
62164;BME280;48149;51.132;7.178;2023-02-18T05:10:27;99057.22;;;23.05;64.88
62164;BME280;48149;51.132;7.178;2023-02-18T05:12:52;99065.00;;;24.10;59.08
62164;BME280;48149;51.132;7.178;2023-02-18T05:15:17;99071.47;;;29.56;68.09
62164;BME280;48149;51.132;7.178;2023-02-18T05:17:43;99071.66;;;28.41;38.05
62164;BME280;48149;51.132;7.178;2023-02-18T05:20:08;99056.84;;;27.44;43.43
62164;BME280;48149;51.132;7.178;2023-02-18T05:22:33;99067.41;;;25.90;51.22
62164;BME280;48149;51.132;7.178;2023-02-18T05:24:59;99063.88;;;26.70;45.01
62164;BME280;48149;51.132;7.178;2023-02-18T05:27:24;99050.81;;;26.77;46.73
62164;BME280;48149;51.132;7.178;2023-02-18T05:29:49;99060.31;;;27.05;44.79
62164;BME280;48149;51.132;7.178;2023-02-18T05:32:14;99054.91;;;26.21;47.03
62164;BME280;48149;51.132;7.178;2023-02-18T05:34:39;99038.84;;;25.44;49.30
62164;BME280;48149;51.132;7.178;2023-02-18T05:37:05;99047.22;;;24.70;49.84
62164;BME280;48149;51.132;7.178;2023-02-18T05:39:30;99031.72;;;25.26;50.57
62164;BME280;48149;51.132;7.178;2023-02-18T05:41:55;99039.59;;;24.77;50.57
62164;BME280;48149;51.132;7.178;2023-02-18T05:44:20;99019.78;;;25.32;49.90
62164;BME280;48149;51.132;7.178;2023-02-18T05:46:55;99017.91;;;24.92;52.34
62164;BME280;48149;51.132;7.178;2023-02-18T05:49:20;99012.56;;;23.95;51.65
62164;BME280;48149;51.132;7.178;2023-02-18T05:51:46;99011.66;;;25.10;51.55
62164;BME280;48149;51.132;7.178;2023-02-18T05:54:11;99000.19;;;25.73;54.41
62164;BME280;48149;51.132;7.178;2023-02-18T05:56:36;99000.94;;;26.54;49.60
62164;BME280;48149;51.132;7.178;2023-02-18T05:59:02;99008.25;;;24.64;52.54
62164;BME280;48149;51.132;7.178;2023-02-18T06:01:27;98996.22;;;26.81;47.99
62164;BME280;48149;51.132;7.178;2023-02-18T06:03:52;98998.38;;;26.04;47.24
62164;BME280;48149;51.132;7.178;2023-02-18T06:06:17;98999.53;;;26.25;46.89
62164;BME280;48149;51.132;7.178;2023-02-18T06:08:42;99004.06;;;24.07;52.32
62164;BME280;48149;51.132;7.178;2023-02-18T06:11:08;98992.59;;;25.39;50.19
62164;BME280;48149;51.132;7.178;2023-02-18T06:13:33;98979.63;;;22.96;59.64
62164;BME280;48149;51.132;7.178;2023-02-18T06:15:58;98988.84;;;24.39;52.67
62164;BME280;48149;51.132;7.178;2023-02-18T06:18:24;98991.91;;;25.06;52.18
62164;BME280;48149;51.132;7.178;2023-02-18T06:20:49;98999.25;;;23.90;57.34
62164;BME280;48149;51.132;7.178;2023-02-18T06:23:14;98993.84;;;24.27;54.00
62164;BME280;48149;51.132;7.178;2023-02-18T06:25:40;98987.59;;;24.51;52.77
62164;BME280;48149;51.132;7.178;2023-02-18T06:28:06;98997.91;;;23.31;55.66
62164;BME280;48149;51.132;7.178;2023-02-18T06:30:31;98987.38;;;23.96;61.44
62164;BME280;48149;51.132;7.178;2023-02-18T06:32:57;98986.09;;;24.45;57.20
62164;BME280;48149;51.132;7.178;2023-02-18T06:35:22;99021.00;;;23.65;59.86
62164;BME280;48149;51.132;7.178;2023-02-18T06:37:47;98995.13;;;23.98;58.21
62164;BME280;48149;51.132;7.178;2023-02-18T06:40:12;99002.59;;;23.82;55.54
62164;BME280;48149;51.132;7.178;2023-02-18T06:42:38;98984.06;;;24.04;55.83
62164;BME280;48149;51.132;7.178;2023-02-18T06:45:03;98988.16;;;25.21;52.46
62164;BME280;48149;51.132;7.178;2023-02-18T06:47:30;98986.97;;;24.40;55.07
62164;BME280;48149;51.132;7.178;2023-02-18T06:49:55;98996.84;;;23.09;57.63
62164;BME280;48149;51.132;7.178;2023-02-18T06:52:21;98982.56;;;23.61;56.09
62164;BME280;48149;51.132;7.178;2023-02-18T06:54:46;98988.44;;;24.46;54.75
62164;BME280;48149;51.132;7.178;2023-02-18T06:57:11;98991.44;;;24.12;55.68
62164;BME280;48149;51.132;7.178;2023-02-18T06:59:36;99002.41;;;22.31;59.03
62164;BME280;48149;51.132;7.178;2023-02-18T07:02:02;98984.47;;;25.03;50.49
62164;BME280;48149;51.132;7.178;2023-02-18T07:04:27;98981.91;;;25.12;50.87
62164;BME280;48149;51.132;7.178;2023-02-18T07:06:52;98989.31;;;23.34;55.26
62164;BME280;48149;51.132;7.178;2023-02-18T07:09:18;98983.13;;;24.14;54.63
62164;BME280;48149;51.132;7.178;2023-02-18T07:11:43;98987.16;;;25.03;52.68
62164;BME280;48149;51.132;7.178;2023-02-18T07:14:08;98983.09;;;22.97;59.15
62164;BME280;48149;51.132;7.178;2023-02-18T07:16:33;98979.16;;;22.89;56.34
62164;BME280;48149;51.132;7.178;2023-02-18T07:18:58;98990.19;;;21.37;62.13
62164;BME280;48149;51.132;7.178;2023-02-18T07:21:24;98991.53;;;23.27;60.64
62164;BME280;48149;51.132;7.178;2023-02-18T07:23:49;99003.56;;;23.49;55.11
62164;BME280;48149;51.132;7.178;2023-02-18T07:26:14;98992.09;;;24.04;54.79
62164;BME280;48149;51.132;7.178;2023-02-18T07:28:40;98992.69;;;22.98;57.53
62164;BME280;48149;51.132;7.178;2023-02-18T07:31:05;98992.84;;;24.56;51.57
62164;BME280;48149;51.132;7.178;2023-02-18T07:33:31;98984.47;;;22.94;55.06
62164;BME280;48149;51.132;7.178;2023-02-18T07:35:57;98997.44;;;24.23;50.83
62164;BME280;48149;51.132;7.178;2023-02-18T07:38:23;98984.97;;;24.32;54.63
62164;BME280;48149;51.132;7.178;2023-02-18T07:40:49;98975.41;;;23.75;54.08
62164;BME280;48149;51.132;7.178;2023-02-18T07:43:14;98987.53;;;21.81;57.49
62164;BME280;48149;51.132;7.178;2023-02-18T07:45:40;98978.81;;;22.96;55.22
62164;BME280;48149;51.132;7.178;2023-02-18T07:48:05;98989.69;;;23.23;55.01
62164;BME280;48149;51.132;7.178;2023-02-18T07:50:30;98999.50;;;22.85;54.66
62164;BME280;48149;51.132;7.178;2023-02-18T07:52:59;98988.38;;;23.02;54.94
62164;BME280;48149;51.132;7.178;2023-02-18T07:55:24;99003.31;;;24.38;50.12
62164;BME280;48149;51.132;7.178;2023-02-18T07:58:10;98997.28;;;23.58;51.96
62164;BME280;48149;51.132;7.178;2023-02-18T08:00:35;99012.03;;;23.74;52.34
62164;BME280;48149;51.132;7.178;2023-02-18T08:03:01;98995.34;;;22.98;54.58
62164;BME280;48149;51.132;7.178;2023-02-18T08:05:26;99009.63;;;23.12;54.54
62164;BME280;48149;51.132;7.178;2023-02-18T08:07:51;99017.06;;;22.00;58.90
62164;BME280;48149;51.132;7.178;2023-02-18T08:10:16;99023.44;;;21.99;60.43
62164;BME280;48149;51.132;7.178;2023-02-18T08:12:42;99028.25;;;22.93;57.21
62164;BME280;48149;51.132;7.178;2023-02-18T08:15:07;99020.56;;;21.85;61.75
62164;BME280;48149;51.132;7.178;2023-02-18T08:17:32;99039.38;;;20.70;69.92
62164;BME280;48149;51.132;7.178;2023-02-18T08:19:57;99036.91;;;20.94;66.24
62164;BME280;48149;51.132;7.178;2023-02-18T08:22:23;99031.84;;;22.50;60.05
62164;BME280;48149;51.132;7.178;2023-02-18T08:24:48;99040.41;;;22.80;55.43
62164;BME280;48149;51.132;7.178;2023-02-18T08:27:13;99046.78;;;23.32;57.46
62164;BME280;48149;51.132;7.178;2023-02-18T08:29:38;99049.88;;;22.29;52.42
62164;BME280;48149;51.132;7.178;2023-02-18T08:32:04;99044.59;;;21.75;62.24
62164;BME280;48149;51.132;7.178;2023-02-18T08:34:29;99057.25;;;23.52;53.48
62164;BME280;48149;51.132;7.178;2023-02-18T08:36:54;99066.06;;;22.43;54.01
62164;BME280;48149;51.132;7.178;2023-02-18T08:39:19;99061.94;;;22.89;51.79
62164;BME280;48149;51.132;7.178;2023-02-18T08:41:44;99048.56;;;22.89;54.59
62164;BME280;48149;51.132;7.178;2023-02-18T08:44:10;99099.59;;;22.15;56.34
62164;BME280;48149;51.132;7.178;2023-02-18T08:46:35;99068.88;;;20.49;61.43
62164;BME280;48149;51.132;7.178;2023-02-18T08:49:00;99063.94;;;22.01;59.53
62164;BME280;48149;51.132;7.178;2023-02-18T08:51:25;99067.47;;;21.86;56.34
62164;BME280;48149;51.132;7.178;2023-02-18T08:53:52;99063.13;;;23.02;53.50
62164;BME280;48149;51.132;7.178;2023-02-18T08:56:17;99061.34;;;21.26;58.63
62164;BME280;48149;51.132;7.178;2023-02-18T08:58:45;99048.88;;;23.35;54.98
62164;BME280;48149;51.132;7.178;2023-02-18T09:01:11;99053.34;;;21.86;53.31
62164;BME280;48149;51.132;7.178;2023-02-18T09:03:37;99064.13;;;21.60;56.89
62164;BME280;48149;51.132;7.178;2023-02-18T09:06:02;99071.13;;;22.78;50.26
62164;BME280;48149;51.132;7.178;2023-02-18T09:08:28;99078.09;;;24.49;47.36
62164;BME280;48149;51.132;7.178;2023-02-18T09:10:57;99066.09;;;23.24;51.18
62164;BME280;48149;51.132;7.178;2023-02-18T09:13:23;99049.72;;;23.30;51.64
62164;BME280;48149;51.132;7.178;2023-02-18T09:16:22;99046.44;;;21.90;54.27
62164;BME280;48149;51.132;7.178;2023-02-18T09:18:42;99027.66;;;22.39;52.83
62164;BME280;48149;51.132;7.178;2023-02-18T09:21:07;99037.56;;;21.99;54.93
62164;BME280;48149;51.132;7.178;2023-02-18T09:23:33;99035.19;;;21.39;56.83
62164;BME280;48149;51.132;7.178;2023-02-18T09:25:59;99052.91;;;20.74;57.01
62164;BME280;48149;51.132;7.178;2023-02-18T09:28:24;99062.16;;;21.86;53.74
62164;BME280;48149;51.132;7.178;2023-02-18T09:30:50;99043.22;;;21.93;58.65
62164;BME280;48149;51.132;7.178;2023-02-18T09:33:15;99047.06;;;22.15;52.94
62164;BME280;48149;51.132;7.178;2023-02-18T09:35:41;99051.16;;;22.37;54.33
62164;BME280;48149;51.132;7.178;2023-02-18T09:38:08;99049.41;;;23.13;49.53
62164;BME280;48149;51.132;7.178;2023-02-18T09:40:34;99048.00;;;22.29;50.92
62164;BME280;48149;51.132;7.178;2023-02-18T09:43:01;99047.94;;;22.06;53.75
62164;BME280;48149;51.132;7.178;2023-02-18T09:45:27;99033.75;;;20.72;57.99
62164;BME280;48149;51.132;7.178;2023-02-18T09:47:53;99021.59;;;22.33;49.90
62164;BME280;48149;51.132;7.178;2023-02-18T09:50:30;99027.03;;;22.52;50.52
62164;BME280;48149;51.132;7.178;2023-02-18T09:53:00;99027.31;;;21.72;49.94
62164;BME280;48149;51.132;7.178;2023-02-18T09:55:34;99012.44;;;22.73;48.83
62164;BME280;48149;51.132;7.178;2023-02-18T09:58:03;99025.41;;;22.51;50.64
62164;BME280;48149;51.132;7.178;2023-02-18T10:00:31;99030.84;;;21.53;51.92
62164;BME280;48149;51.132;7.178;2023-02-18T10:03:00;99022.41;;;22.62;50.43
62164;BME280;48149;51.132;7.178;2023-02-18T10:05:26;99016.19;;;22.04;51.94
62164;BME280;48149;51.132;7.178;2023-02-18T10:07:54;99007.97;;;22.68;51.05
62164;BME280;48149;51.132;7.178;2023-02-18T10:10:22;98999.41;;;22.38;51.26
62164;BME280;48149;51.132;7.178;2023-02-18T10:12:48;99001.06;;;22.91;50.02
62164;BME280;48149;51.132;7.178;2023-02-18T10:15:21;99011.81;;;22.52;50.26
62164;BME280;48149;51.132;7.178;2023-02-18T10:17:47;99011.03;;;23.28;47.47
62164;BME280;48149;51.132;7.178;2023-02-18T10:20:17;99009.47;;;22.46;50.02
62164;BME280;48149;51.132;7.178;2023-02-18T10:22:45;98998.53;;;21.15;53.24
62164;BME280;48149;51.132;7.178;2023-02-18T10:25:14;99014.34;;;23.44;48.61
62164;BME280;48149;51.132;7.178;2023-02-18T10:27:41;99001.25;;;22.08;53.18
62164;BME280;48149;51.132;7.178;2023-02-18T10:32:32;99004.16;;;22.98;50.07
62164;BME280;48149;51.132;7.178;2023-02-18T10:35:10;99027.31;;;20.93;54.56
62164;BME280;48149;51.132;7.178;2023-02-18T10:42:31;99003.50;;;22.54;52.19
62164;BME280;48149;51.132;7.178;2023-02-18T10:45:08;99017.94;;;21.80;53.97
62164;BME280;48149;51.132;7.178;2023-02-18T10:52:49;99022.13;;;21.96;54.17
62164;BME280;48149;51.132;7.178;2023-02-18T10:55:16;99020.00;;;21.44;55.81
62164;BME280;48149;51.132;7.178;2023-02-18T10:57:53;99040.63;;;20.93;58.68
62164;BME280;48149;51.132;7.178;2023-02-18T11:00:23;99032.53;;;21.88;53.80
62164;BME280;48149;51.132;7.178;2023-02-18T11:05:47;99044.06;;;21.04;61.78
62164;BME280;48149;51.132;7.178;2023-02-18T11:08:16;99031.81;;;21.77;57.67
62164;BME280;48149;51.132;7.178;2023-02-18T11:10:42;99038.53;;;22.13;60.11
62164;BME280;48149;51.132;7.178;2023-02-18T11:13:09;99025.25;;;22.08;59.31
62164;BME280;48149;51.132;7.178;2023-02-18T11:15:36;99029.78;;;22.99;56.58
62164;BME280;48149;51.132;7.178;2023-02-18T11:18:11;99030.53;;;22.81;53.61
62164;BME280;48149;51.132;7.178;2023-02-18T11:20:37;99035.72;;;21.46;61.43
62164;BME280;48149;51.132;7.178;2023-02-18T11:25:32;99032.19;;;22.38;58.34
62164;BME280;48149;51.132;7.178;2023-02-18T11:28:03;99055.28;;;20.81;100.00
62164;BME280;48149;51.132;7.178;2023-02-18T11:30:31;99040.69;;;22.06;63.81
62164;BME280;48149;51.132;7.178;2023-02-18T11:32:58;99035.16;;;21.49;64.25
62164;BME280;48149;51.132;7.178;2023-02-18T11:35:26;99031.81;;;21.77;63.04
62164;BME280;48149;51.132;7.178;2023-02-18T11:37:52;99031.53;;;22.56;58.15
62164;BME280;48149;51.132;7.178;2023-02-18T11:40:19;99033.78;;;21.61;61.87
62164;BME280;48149;51.132;7.178;2023-02-18T11:42:45;99052.03;;;22.66;55.69
62164;BME280;48149;51.132;7.178;2023-02-18T11:45:25;99041.03;;;21.46;62.64
62164;BME280;48149;51.132;7.178;2023-02-18T11:47:57;99030.63;;;22.95;58.26
62164;BME280;48149;51.132;7.178;2023-02-18T11:50:23;99030.34;;;24.23;51.02
62164;BME280;48149;51.132;7.178;2023-02-18T11:52:48;99030.13;;;23.82;52.14
62164;BME280;48149;51.132;7.178;2023-02-18T11:57:40;99027.72;;;23.81;51.48
62164;BME280;48149;51.132;7.178;2023-02-18T12:00:14;99026.13;;;24.82;46.51
62164;BME280;48149;51.132;7.178;2023-02-18T12:02:40;99030.69;;;23.79;51.71
62164;BME280;48149;51.132;7.178;2023-02-18T12:05:24;99039.06;;;22.15;58.57
62164;BME280;48149;51.132;7.178;2023-02-18T12:10:35;99031.22;;;21.36;64.05
62164;BME280;48149;51.132;7.178;2023-02-18T12:13:03;99024.53;;;23.36;54.93
62164;BME280;48149;51.132;7.178;2023-02-18T12:33:30;99012.97;;;23.65;54.25
62164;BME280;48149;51.132;7.178;2023-02-18T12:36:07;99014.00;;;23.69;51.78
62164;BME280;48149;51.132;7.178;2023-02-18T12:44:23;99015.69;;;23.17;54.83
62164;BME280;48149;51.132;7.178;2023-02-18T12:49:37;99025.53;;;23.22;54.80
62164;BME280;48149;51.132;7.178;2023-02-18T13:04:54;99022.03;;;22.74;56.07
62164;BME280;48149;51.132;7.178;2023-02-18T13:10:11;99018.00;;;23.24;54.90
62164;BME280;48149;51.132;7.178;2023-02-18T13:12:47;99026.41;;;21.92;58.34
62164;BME280;48149;51.132;7.178;2023-02-18T13:17:46;99011.03;;;22.80;55.84
62164;BME280;48149;51.132;7.178;2023-02-18T13:20:20;99010.44;;;23.55;54.18
62164;BME280;48149;51.132;7.178;2023-02-18T13:22:46;99021.66;;;23.09;55.65
62164;BME280;48149;51.132;7.178;2023-02-18T13:25:14;99025.53;;;23.64;55.36
62164;BME280;48149;51.132;7.178;2023-02-18T13:27:53;99027.09;;;22.08;55.29
62164;BME280;48149;51.132;7.178;2023-02-18T13:30:59;99014.34;;;22.05;59.52
62164;BME280;48149;51.132;7.178;2023-02-18T13:38:24;99006.91;;;23.41;56.39
62164;BME280;48149;51.132;7.178;2023-02-18T13:40:52;99012.00;;;22.90;56.00
62164;BME280;48149;51.132;7.178;2023-02-18T13:48:32;99005.63;;;22.57;55.28
62164;BME280;48149;51.132;7.178;2023-02-18T13:51:02;99006.00;;;22.45;60.17
62164;BME280;48149;51.132;7.178;2023-02-18T13:53:28;99009.22;;;22.42;59.74
62164;BME280;48149;51.132;7.178;2023-02-18T13:58:29;99011.31;;;23.87;52.80
62164;BME280;48149;51.132;7.178;2023-02-18T14:01:05;99018.28;;;22.46;58.52
62164;BME280;48149;51.132;7.178;2023-02-18T14:08:48;99008.88;;;22.20;55.72
62164;BME280;48149;51.132;7.178;2023-02-18T14:13:53;99001.84;;;22.63;58.77
62164;BME280;48149;51.132;7.178;2023-02-18T14:16:22;99018.25;;;22.80;59.39
62164;BME280;48149;51.132;7.178;2023-02-18T14:18:55;99003.47;;;23.11;55.89
62164;BME280;48149;51.132;7.178;2023-02-18T14:21:22;99023.00;;;22.54;57.58
62164;BME280;48149;51.132;7.178;2023-02-18T14:24:02;99002.00;;;23.85;55.63
62164;BME280;48149;51.132;7.178;2023-02-18T14:26:33;99016.63;;;25.03;48.95
62164;BME280;48149;51.132;7.178;2023-02-18T14:29:00;99006.44;;;24.08;51.97
62164;BME280;48149;51.132;7.178;2023-02-18T14:31:46;98997.09;;;23.92;55.44
62164;BME280;48149;51.132;7.178;2023-02-18T14:44:10;99011.19;;;22.65;54.07
62164;BME280;48149;51.132;7.178;2023-02-18T14:51:33;99001.91;;;21.90;59.60
62164;BME280;48149;51.132;7.178;2023-02-18T14:54:05;98997.28;;;23.96;55.10
62164;BME280;48149;51.132;7.178;2023-02-18T14:56:31;98992.00;;;24.09;52.39
62164;BME280;48149;51.132;7.178;2023-02-18T14:58:57;98988.28;;;21.92;59.80
62164;BME280;48149;51.132;7.178;2023-02-18T15:01:26;99013.53;;;23.43;56.21
62164;BME280;48149;51.132;7.178;2023-02-18T15:03:52;98990.22;;;23.49;57.16
62164;BME280;48149;51.132;7.178;2023-02-18T15:06:22;98986.09;;;23.56;56.37
62164;BME280;48149;51.132;7.178;2023-02-18T15:08:47;98986.50;;;23.02;58.02
62164;BME280;48149;51.132;7.178;2023-02-18T15:11:13;99000.25;;;23.33;52.97
62164;BME280;48149;51.132;7.178;2023-02-18T15:13:42;98989.72;;;22.18;59.95
62164;BME280;48149;51.132;7.178;2023-02-18T15:16:17;98995.63;;;23.44;53.08
62164;BME280;48149;51.132;7.178;2023-02-18T15:18:48;98987.84;;;24.81;51.45
62164;BME280;48149;51.132;7.178;2023-02-18T15:21:20;98996.28;;;22.59;58.46